KAOO/AOO METAR and TAF weather

Enter ICAO airport designator
Station Type Date Time Source
KAOO METAR 2020/04/05 12:53 UTC NOAA

KAOO 051253Z AUTO 31003KT 10SM BKN055 OVC080 09/05 A3006 RMK AO2 RAE25 SLP183 P0000 T00890050


Station Type Date Time Source
KAOO Decoded METAR 2020/04/05 12:53 UTC NOAA

ALTOONA-BLAIR COUNTY AIRPORT, PA, United States (KAOO) 40-18N 78-19W 455M
Apr 05, 2020 - 08:53 AM EDT / 2020.04.05 1253 UTC
Wind: from the NW (310 degrees) at 3 MPH (3 KT):0
Visibility: 10 mile(s):0
Sky conditions: overcast
Precipitation last hour: A trace
Temperature: 48.0 F (8.9 C)
Dew Point: 41.0 F (5.0 C)
Relative Humidity: 76%
Pressure (altimeter): 30.06 in. Hg (1017 hPa)
ob: KAOO 051253Z AUTO 31003KT 10SM BKN055 OVC080 09/05 A3006 RMK AO2 RAE25 SLP183 P0000 T00890050
cycle: 13

Station Type Date Time Source
KAOO TAF 2020/04/05 12:22 UTC NOAA

TAF KAOO 051120Z 0512/0612 20004KT P6SM VCSH OVC070
TEMPO 0512/0515 -SHRA OVC040
FM051800 28008G15KT P6SM OVC045
FM060100 30007KT P6SM BKN040 BKN080

Example: see airport list